Time;durP1;ratioP1;P1;durP2;ratioP2;P2;SDS_P1;SDS_P2;PMS_P1;PMS_P2;Temp;Humidity;BMP_temperature;BMP_pressure;BME280_temperature;BME280_humidity;BME280_pressure;Samples;Min_cycle;Max_cycle;Signal;HPM_P1;HPM_P2
2023/09/22 00:06:34;;;;;;;8.48;5.07;;;;;;;27.10;46.38;102354.34;21084758;28;20097;-59
2023/09/22 00:16:35;;;;;;;6.32;5.68;;;;;;;27.10;46.28;102368.38;21084596;28;20121;-62
2023/09/22 00:26:37;;;;;;;6.32;5.47;;;;;;;27.10;46.29;102372.03;21084658;28;20499;-61
2023/09/22 00:36:38;;;;;;;6.47;5.47;;;;;;;27.08;46.28;102373.44;21084549;28;20395;-61
2023/09/22 00:46:42;;;;;;;6.45;5.07;;;;;;;27.09;46.40;102378.78;21082587;28;20449;-62
2023/09/22 00:56:45;;;;;;;5.72;5.13;;;;;;;27.10;46.25;102374.84;21082663;28;20148;-62
2023/09/22 01:06:47;;;;;;;6.55;5.35;;;;;;;27.09;46.21;102392.00;21082128;28;20558;-61
2023/09/22 01:16:50;;;;;;;5.68;4.85;;;;;;;27.11;46.26;102392.53;21081032;28;20119;-61
2023/09/22 01:26:52;;;;;;;5.85;5.18;;;;;;;27.11;46.17;102384.94;21080675;28;20040;-61
2023/09/22 01:36:57;;;;;;;7.30;5.18;;;;;;;27.12;46.41;102380.16;21079884;28;20425;-61
2023/09/22 01:46:59;;;;;;;5.93;4.65;;;;;;;27.07;46.09;102354.88;21079005;28;20039;-61
2023/09/22 01:57:03;;;;;;;5.10;4.60;;;;;;;27.11;46.32;102350.41;21077624;28;20102;-61
2023/09/22 02:07:05;;;;;;;5.60;5.05;;;;;;;27.11;46.19;102337.19;21075230;28;20113;-62
2023/09/22 02:17:06;;;;;;;6.90;5.38;;;;;;;27.12;46.26;102349.25;21076837;28;20437;-61
2023/09/22 02:27:07;;;;;;;5.95;5.05;;;;;;;27.11;46.51;102350.41;21076348;28;20437;-61
2023/09/22 02:37:09;;;;;;;6.20;4.65;;;;;;;27.11;46.25;102362.47;21075769;28;20043;-61
2023/09/22 02:47:10;;;;;;;5.55;4.72;;;;;;;27.10;46.49;102372.03;21073069;28;20062;-62
2023/09/22 02:57:12;;;;;;;5.15;4.40;;;;;;;27.11;46.55;102378.50;21069904;28;20110;-61
2023/09/22 03:07:20;;;;;;;5.50;4.80;;;;;;;26.95;47.13;102358.06;21070248;28;20556;-61
2023/09/22 03:17:21;;;;;;;5.70;4.90;;;;;;;27.11;47.20;102384.13;21078660;28;20101;-61
2023/09/22 03:27:23;;;;;;;5.18;4.15;;;;;;;27.07;47.25;102368.94;21084901;28;20040;-62
2023/09/22 03:37:29;;;;;;;5.88;5.10;;;;;;;27.16;47.57;102391.69;21058500;28;20154;-60
2023/09/22 03:47:30;;;;;;;6.13;4.47;;;;;;;27.15;47.63;102407.69;21088652;28;20081;-61
2023/09/22 03:57:32;;;;;;;6.22;4.25;;;;;;;27.16;48.16;102415.00;21087445;28;20196;-61
2023/09/22 04:07:33;;;;;;;5.78;4.63;;;;;;;27.15;48.76;102418.94;21087923;28;20105;-61
2023/09/22 04:17:36;;;;;;;6.63;3.97;;;;;;;27.16;48.79;102405.72;21086460;28;20101;-61
2023/09/22 04:27:46;;;;;;;6.30;4.32;;;;;;;27.12;48.85;102402.66;21084186;28;20040;-61
2023/09/22 04:37:50;;;;;;;6.03;4.18;;;;;;;27.19;48.41;102402.34;21084361;28;20040;-61
2023/09/22 04:47:52;;;;;;;4.55;4.15;;;;;;;27.18;48.69;102404.31;21084133;28;20516;-60
2023/09/22 04:57:53;;;;;;;4.80;4.03;;;;;;;27.17;48.65;102411.06;21082476;28;20047;-60
2023/09/22 05:07:55;;;;;;;5.80;3.80;;;;;;;27.03;48.66;102387.50;21081706;28;20040;-61
2023/09/22 05:17:56;;;;;;;5.72;4.50;;;;;;;27.16;48.51;102429.03;21080512;28;20040;-62
2023/09/22 05:28:00;;;;;;;4.72;3.63;;;;;;;27.14;48.42;102422.88;21078265;28;20048;-61
2023/09/22 05:38:06;;;;;;;5.28;3.70;;;;;;;27.15;48.39;102435.81;21078885;28;20040;-61
2023/09/22 05:48:10;;;;;;;5.57;3.80;;;;;;;27.15;48.32;102449.84;21079516;28;20490;-61
2023/09/22 05:58:14;;;;;;;5.25;3.97;;;;;;;27.15;48.10;102451.81;21078171;28;20114;-61
2023/09/22 06:08:16;;;;;;;4.53;3.42;;;;;;;27.15;47.96;102449.00;21077610;28;20031;-61
2023/09/22 06:18:18;;;;;;;4.40;3.92;;;;;;;27.12;47.96;102441.97;21077872;28;20043;-60
2023/09/22 06:28:20;;;;;;;4.28;3.50;;;;;;;27.13;47.84;102448.47;21070693;28;20556;-61
2023/09/22 06:38:22;;;;;;;3.97;3.40;;;;;;;27.11;47.88;102457.16;21073868;28;20044;-61
2023/09/22 06:48:26;;;;;;;4.55;3.30;;;;;;;27.04;47.58;102436.94;21078605;28;20117;-61
2023/09/22 06:58:31;;;;;;;3.88;3.33;;;;;;;27.11;47.92;102440.31;21088788;28;20069;-61
2023/09/22 07:08:33;;;;;;;3.42;3.13;;;;;;;27.10;47.68;102442.28;21084412;28;20032;-60
2023/09/22 07:18:35;;;;;;;3.72;3.33;;;;;;;27.09;47.49;102428.53;21088005;28;20070;-61
2023/09/22 07:28:37;;;;;;;3.88;3.47;;;;;;;27.04;47.21;102411.66;21087163;28;20036;-60
2023/09/22 07:38:42;;;;;;;4.13;3.72;;;;;;;27.09;47.40;102442.59;21083865;28;20044;-61
2023/09/22 07:48:43;;;;;;;4.07;3.65;;;;;;;27.07;47.16;102427.94;21087404;28;20372;-61
2023/09/22 07:58:44;;;;;;;3.72;3.40;;;;;;;27.06;47.20;102427.09;21082397;28;20032;-61
2023/09/22 08:08:49;;;;;;;4.38;3.63;;;;;;;27.05;47.16;102425.41;21087302;28;20553;-61
2023/09/22 08:18:50;;;;;;;3.70;3.10;;;;;;;26.92;47.02;102392.31;21084583;28;20043;-61
2023/09/22 08:28:52;;;;;;;3.75;3.20;;;;;;;27.04;47.08;102417.28;21085098;28;20040;-61
2023/09/22 08:38:55;;;;;;;3.47;3.17;;;;;;;27.03;47.15;102418.38;21084846;28;20044;-61
2023/09/22 08:48:57;;;;;;;3.80;3.38;;;;;;;27.00;46.97;102422.63;21083186;28;20391;-60
2023/09/22 08:58:58;;;;;;;4.63;3.50;;;;;;;27.00;46.89;102414.22;21083052;28;20048;-60
2023/09/22 09:09:12;;;;;;;3.88;3.13;;;;;;;27.01;47.13;102403.81;21081330;28;20052;-60
2023/09/22 09:19:17;;;;;;;3.85;3.13;;;;;;;26.99;46.77;102403.25;21081362;28;20032;-60
2023/09/22 09:29:31;;;;;;;3.97;3.30;;;;;;;26.89;46.90;102406.09;21081111;28;20036;-60
2023/09/22 09:39:52;;;;;;;4.05;3.13;;;;;;;26.92;46.56;102422.38;21079435;28;20044;-61
2023/09/22 09:49:55;;;;;;;3.50;3.20;;;;;;;26.93;46.75;102421.25;21070189;28;20044;-61
2023/09/22 09:59:57;;;;;;;4.25;3.00;;;;;;;26.89;46.74;102420.13;21072677;28;20091;-61
2023/09/22 10:09:58;;;;;;;3.03;2.65;;;;;;;26.93;46.90;102443.72;21077650;28;20044;-61
2023/09/22 10:20:06;;;;;;;4.85;3.50;;;;;;;26.92;46.99;102450.47;21075036;28;20035;-61
2023/09/22 10:30:08;;;;;;;3.53;2.88;;;;;;;26.92;46.54;102447.66;21074676;28;20044;-61
2023/09/22 10:40:16;;;;;;;4.60;3.22;;;;;;;26.89;46.68;102453.84;21070954;28;20384;-61
2023/09/22 10:50:24;;;;;;;4.32;3.17;;;;;;;26.89;46.85;102456.66;21071651;28;20570;-60
2023/09/22 11:00:26;;;;;;;3.40;2.90;;;;;;;26.83;46.44;102462.28;21074076;28;20476;-61
2023/09/22 11:10:31;;;;;;;3.88;2.65;;;;;;;26.80;46.41;102460.06;21066733;28;20051;-61
2023/09/22 11:20:33;;;;;;;3.90;3.08;;;;;;;26.84;46.42;102492.06;21066973;28;20094;-61
2023/09/22 11:30:35;;;;;;;5.07;3.80;;;;;;;26.80;46.35;102496.59;21075474;28;20512;-60
2023/09/22 11:40:41;;;;;;;6.20;3.40;;;;;;;26.80;46.05;102519.06;21089183;28;20032;-61
2023/09/22 11:50:43;;;;;;;5.57;3.30;;;;;;;26.80;46.08;102521.84;21088121;28;20040;-60
2023/09/22 12:00:45;;;;;;;4.75;3.30;;;;;;;26.79;46.10;102525.75;21085662;28;20059;-61
2023/09/22 12:10:46;;;;;;;4.57;3.22;;;;;;;26.77;46.11;102525.22;21085812;28;20097;-61
2023/09/22 12:20:47;;;;;;;4.82;3.47;;;;;;;26.77;45.82;102519.59;21082099;28;20028;-60
2023/09/22 12:30:52;;;;;;;4.30;3.30;;;;;;;26.76;45.77;102517.09;21083105;28;20032;-62
2023/09/22 12:40:53;;;;;;;5.93;3.42;;;;;;;26.75;45.51;102527.47;21069873;28;20039;-61
2023/09/22 12:50:55;;;;;;;8.60;3.78;;;;;;;26.74;45.56;102542.63;21036369;28;20051;-60
2023/09/22 13:00:58;;;;;;;6.13;3.42;;;;;;;26.76;45.51;102551.63;21081212;28;20043;-60
2023/09/22 13:10:59;;;;;;;4.63;3.67;;;;;;;26.67;45.72;102541.25;21075602;28;20093;-60
2023/09/22 13:21:01;;;;;;;10.55;3.55;;;;;;;26.72;45.46;102539.28;21077852;28;20059;-59
2023/09/22 13:31:05;;;;;;;4.78;3.22;;;;;;;26.78;45.52;102538.13;21056587;28;20101;-61
2023/09/22 13:41:13;;;;;;;4.47;3.10;;;;;;;26.79;45.37;102548.22;21040439;28;20101;-61
2023/09/22 13:51:14;;;;;;;5.10;3.28;;;;;;;26.76;45.36;102551.63;21019171;28;20479;-61
2023/09/22 14:01:17;;;;;;;3.67;2.88;;;;;;;26.79;45.23;102556.66;21078255;28;20097;-62
2023/09/22 14:11:19;;;;;;;4.65;3.10;;;;;;;26.74;45.12;102542.63;21041115;28;20093;-60
2023/09/22 14:21:23;;;;;;;5.03;3.10;;;;;;;26.77;45.39;102536.47;21066219;28;20040;-61
2023/09/22 14:31:28;;;;;;;4.97;2.97;;;;;;;26.77;43.79;102552.47;21065956;28;20070;-60
2023/09/22 14:41:30;;;;;;;5.00;3.00;;;;;;;26.57;41.18;102523.28;20991841;28;20098;-60
2023/09/22 14:51:34;;;;;;;8.35;2.67;;;;;;;26.65;41.02;102533.09;20990388;28;20049;-60
2023/09/22 15:01:36;;;;;;;7.93;2.35;;;;;;;26.64;41.17;102525.78;21034203;28;20043;-59
2023/09/22 15:11:38;;;;;;;5.97;2.53;;;;;;;26.65;40.84;102533.09;21063727;28;20113;-60
2023/09/22 15:21:39;;;;;;;6.97;2.47;;;;;;;26.64;41.01;102531.41;21076650;28;20187;-60
2023/09/22 15:31:41;;;;;;;6.90;2.55;;;;;;;26.64;40.50;102520.19;21055411;28;20441;-60
2023/09/22 15:41:42;;;;;;;6.80;2.50;;;;;;;26.63;39.71;102535.34;21088630;28;20143;-61
2023/09/22 15:51:44;;;;;;;7.88;2.92;;;;;;;26.57;39.53;102508.38;21049449;28;20036;-61
2023/09/22 16:01:46;;;;;;;7.65;2.70;;;;;;;26.47;38.53;102491.56;21072665;28;20121;-60
2023/09/22 16:11:48;;;;;;;7.00;2.53;;;;;;;26.64;38.32;102506.13;21081051;28;20044;-60
2023/09/22 16:21:50;;;;;;;4.53;2.40;;;;;;;26.66;37.86;102511.47;21083659;28;20125;-60
2023/09/22 16:31:51;;;;;;;5.18;2.25;;;;;;;26.67;38.74;102505.59;21085184;28;20093;-59
2023/09/22 16:41:55;;;;;;;4.88;3.03;;;;;;;26.62;38.66;102488.75;21084606;28;20495;-60
2023/09/22 16:51:59;;;;;;;4.80;2.25;;;;;;;26.62;39.12;102488.75;21083746;28;20113;-61
2023/09/22 17:02:00;;;;;;;3.03;2.00;;;;;;;26.58;38.06;102484.81;21068862;28;20063;-61
2023/09/22 17:12:04;;;;;;;3.72;2.40;;;;;;;26.60;37.85;102474.13;21075583;28;20048;-61
2023/09/22 17:22:06;;;;;;;7.35;2.80;;;;;;;26.61;38.16;102489.84;21066186;28;20036;-61
2023/09/22 17:32:08;;;;;;;5.60;2.88;;;;;;;26.60;38.40;102485.38;21071553;28;20071;-61
2023/09/22 17:42:09;;;;;;;8.23;2.70;;;;;;;26.43;37.27;102456.72;21076503;28;20036;-62
2023/09/22 17:52:11;;;;;;;3.10;1.98;;;;;;;26.56;36.29;102484.25;21074584;28;20048;-61
2023/09/22 18:02:12;;;;;;;4.15;2.22;;;;;;;26.57;37.04;102460.66;21072050;28;20036;-61
2023/09/22 18:12:19;;;;;;;3.08;2.30;;;;;;;26.53;37.52;102445.53;21068491;28;20438;-60
2023/09/22 18:22:23;;;;;;;5.47;2.17;;;;;;;26.54;38.10;102441.59;21072643;28;20113;-61
2023/09/22 18:32:25;;;;;;;5.03;2.10;;;;;;;26.55;37.85;102437.66;21056129;28;20040;-60
2023/09/22 18:42:26;;;;;;;4.43;2.53;;;;;;;26.50;37.64;102430.06;21055854;28;20024;-60
2023/09/22 18:52:27;;;;;;;3.53;2.72;;;;;;;26.52;38.65;102418.56;21051827;28;20048;-61
2023/09/22 19:02:32;;;;;;;5.40;2.75;;;;;;;26.53;38.26;102434.31;21054390;28;20028;-61
2023/09/22 19:12:33;;;;;;;6.68;2.58;;;;;;;26.49;38.48;102438.78;21050841;28;21608;-59
2023/09/22 19:22:34;;;;;;;4.53;2.75;;;;;;;26.48;38.68;102414.63;21040129;28;20407;-61
2023/09/22 19:32:39;;;;;;;6.60;2.90;;;;;;;26.47;38.46;102430.63;21065768;28;20040;-60
2023/09/22 19:42:41;;;;;;;6.40;2.70;;;;;;;26.48;38.18;102415.50;21037586;28;20093;-59
2023/09/22 19:52:42;;;;;;;8.82;3.22;;;;;;;26.45;38.16;102437.69;21064938;28;20043;-61
2023/09/22 20:02:44;;;;;;;4.00;3.15;;;;;;;26.35;38.32;102393.59;21055595;28;20553;-62
2023/09/22 20:12:45;;;;;;;3.92;2.95;;;;;;;26.43;38.88;102417.41;21072267;28;20127;-61
2023/09/22 20:22:47;;;;;;;6.60;3.40;;;;;;;26.39;39.25;102399.47;21076841;28;20503;-61
2023/09/22 20:32:48;;;;;;;5.85;3.10;;;;;;;26.40;39.15;102396.38;21056843;28;20043;-60
2023/09/22 20:42:52;;;;;;;8.05;3.50;;;;;;;26.38;39.08;102394.97;21074153;28;20371;-61
2023/09/22 20:52:54;;;;;;;4.90;3.38;;;;;;;26.40;39.28;102403.97;21053458;28;20040;-61
2023/09/22 21:02:58;;;;;;;5.45;2.90;;;;;;;26.38;39.59;102397.78;21077945;28;20036;-60
2023/09/22 21:12:59;;;;;;;7.40;3.88;;;;;;;26.24;39.72;102401.16;21074905;28;20332;-60
2023/09/22 21:23:08;;;;;;;9.40;3.35;;;;;;;26.31;39.71;102421.38;21057396;28;20049;-60
2023/09/22 21:33:10;;;;;;;13.85;3.65;;;;;;;26.31;40.19;102432.59;21031368;28;20056;-64
2023/09/22 21:43:12;;;;;;;14.80;3.90;;;;;;;26.28;40.28;102423.91;21060518;28;20035;-64
2023/09/22 21:53:13;;;;;;;8.82;5.40;;;;;;;26.29;39.94;102432.03;21071475;28;20040;-64
2023/09/22 22:03:15;;;;;;;11.85;4.90;;;;;;;26.24;39.93;102434.00;21070499;28;20044;-60
2023/09/22 22:13:21;;;;;;;11.05;4.72;;;;;;;26.24;40.50;102419.97;21069016;28;20044;-60
2023/09/22 22:23:23;;;;;;;9.45;4.13;;;;;;;26.21;41.03;102415.78;21072480;28;20117;-59
2023/09/22 22:33:27;;;;;;;8.05;4.15;;;;;;;26.28;43.34;102405.09;21067256;28;20044;-60
2023/09/22 22:43:30;;;;;;;9.32;4.22;;;;;;;26.30;42.97;102388.00;21066671;28;20040;-60
2023/09/22 22:53:31;;;;;;;7.25;3.85;;;;;;;26.28;42.67;102382.66;21069946;28;20105;-59
2023/09/22 23:03:35;;;;;;;9.07;4.15;;;;;;;26.20;41.95;102363.56;21065838;28;20044;-58
2023/09/22 23:13:41;;;;;;;10.93;3.53;;;;;;;26.23;41.44;102362.19;21068616;28;20446;-58
2023/09/22 23:23:43;;;;;;;7.88;2.92;;;;;;;26.23;41.09;102363.00;21067673;28;20461;-59
2023/09/22 23:33:45;;;;;;;9.13;4.57;;;;;;;26.27;42.74;102364.13;21081079;28;20093;-59
2023/09/22 23:43:47;;;;;;;29.30;19.40;;;;;;;26.29;42.96;102361.88;21076407;28;20024;-60
2023/09/22 23:53:48;;;;;;;41.88;23.75;;;;;;;26.28;42.20;102348.97;21081465;28;20039;-59
